Главная страница
METAR-TAF:

METAR-TAF

Аэропорты :

Фалеоло

Апиа, Уполу, Самоа

широта: 13-49S, долгота: 172-00W, высота над уровнем моря: 5 м

Текущие метеонаблюдения

Эта сводка был подготовлена 1 час и 11 минут назад, в 11:00 UTC
Ветер 3 Узел от юго-юго-восточный
Температура 25°C
Влажность 94%
Давление 1013 hPa
Видимость 10 км и более
небольшая облачность на высоте 3000 фута

METAR: NSFA 251100Z 16003KT 9999 FEW030 25/24 Q1013

Время: 01:11 (12:11 UTC)

Прогноз

Эта сводка был подготовлена 1 час и 0 минут назад, в 11:11 UTC
Прогноз действительный с 25-го 12 UTC до 26-го 12 UTC
Ветер 3 Узел переменных направлений
Видимость 10 км и более
Отдельные облака на высоте 2200 фута
Рассеянная облачность на высоте 3000 фута

TAF: NSFA 251111Z 2512/2612 VRB03KT 9999 SCT022 BKN030

Метеонаблюдения и прогнозы для более 4000 аэропортов (сводки METAR и TAF).

Имеющиеся станции представлены на карте желтыми и красными точками.

Чтобы увидеть название станции, наведите на нее мышь.

Затем щелкните, чтобы увидеть метеонаблюдения и метеопрогнозы.

Управление картой: чтобы увеличить масштаб, щелкните зеленые кнопки с черным крестиком; чтобы уменьшить масштаб, щелкните зеленую кнопку с тире; для просмотра соседних карт щелкайте зеленые стрелки.


METAR-TAF: